Otter Lake, Indiana
Current Conditions -  °F | °C
As of 4:15 PM on Thursday 27 Nov 2014 (Local Time) from KANQ Reporting Station
Overcast Overcast  
Wind Chill: 18°   Ceiling: 3200
Heat Index: 30°   Visibility: 10mi
Dew Point: 18°   Wind: 17mph
Humidity: 60%   Direction: 300°WNW
Pressure: 30.21"   Gusts: NA
Location:  41.7284°N, 84.9169°W
Report Text: KANQ 272115Z AUTO 30015KT 10SM SCT020 BKN032 OVC065 M01/M08 A3021 RMK
Loading
Personal Weather Stations






























Interactive Weather Map New forecast layout! Learn more

10-Day Weather Forecast

Advertisements
Track Severe Weather on mobile